Time;durP1;ratioP1;P1;durP2;ratioP2;P2;SDS_P1;SDS_P2;PMS_P1;PMS_P2;Temp;Humidity;BMP_temperature;BMP_pressure;BME280_temperature;BME280_humidity;BME280_pressure;Samples;Min_cycle;Max_cycle;Signal;HPM_P1;HPM_P2
2023/03/19 00:01:38;;;;;;;;;61.00;49.00;;;;;2.55;89.87;99984.41;6280168;20;2500624;-60
2023/03/19 00:04:05;;;;;;;;;55.00;45.50;;;;;2.27;90.50;99982.41;6284576;20;2500340;-61
2023/03/19 00:06:33;;;;;;;;;48.00;42.00;;;;;2.31;91.64;99991.16;6280926;20;2497152;-61
2023/03/19 00:09:03;;;;;;;;;63.67;48.00;;;;;2.40;92.23;99983.00;6285612;20;2875282;-61
2023/03/19 00:11:33;;;;;;;;;66.50;53.50;;;;;2.08;92.75;99989.91;6313743;20;2862871;-61
2023/03/19 00:14:01;;;;;;;;;59.50;48.00;;;;;2.15;92.30;99982.69;6285306;20;2860705;-61
2023/03/19 00:16:30;;;;;;;;;59.50;48.50;;;;;2.10;92.26;99987.22;6279556;20;2499769;-62
2023/03/19 00:19:00;;;;;;;;;58.50;46.00;;;;;2.29;91.97;99985.91;6284831;20;2860732;-61
2023/03/19 00:21:31;;;;;;;;;61.00;46.33;;;;;2.16;91.25;99981.78;6282791;20;2873238;-57
2023/03/19 00:24:01;;;;;;;;;54.50;45.00;;;;;2.05;91.45;99989.09;6315240;20;2487945;-59
2023/03/19 00:26:32;;;;;;;;;47.50;43.00;;;;;1.90;92.39;99982.38;6284994;20;2834762;-58
2023/03/19 00:29:03;;;;;;;;;56.67;42.67;;;;;2.03;91.00;99980.28;6282857;20;2888869;-59
2023/03/19 00:31:33;;;;;;;;;40.67;34.33;;;;;1.82;91.43;99973.69;6314500;20;2873301;-59
2023/03/19 00:34:02;;;;;;;;;59.00;46.50;;;;;1.63;92.12;99975.84;6309221;20;2493020;-56
2023/03/19 00:36:31;;;;;;;;;58.50;45.50;;;;;1.78;91.44;99972.88;6284830;20;2863830;-58
2023/03/19 00:38:58;;;;;;;;;57.50;47.50;;;;;1.63;91.83;99973.22;6281825;20;2498221;-58
2023/03/19 00:41:27;;;;;;;;;49.50;44.50;;;;;1.74;91.49;99976.53;6275280;20;2475316;-59
2023/03/19 00:43:58;;;;;;;;;57.00;43.33;;;;;1.46;92.53;99969.13;6282477;20;2873367;-59
2023/03/19 00:46:28;;;;;;;;;55.00;44.00;;;;;1.40;93.54;99968.41;6315879;20;3607586;-59
2023/03/19 00:48:57;;;;;;;;;56.00;47.00;;;;;1.42;93.38;99978.06;6315345;20;2853429;-59
2023/03/19 00:51:26;;;;;;;;;64.00;50.50;;;;;1.52;93.01;99976.06;6280693;20;2870140;-59
2023/03/19 00:53:55;;;;;;;;;61.00;49.00;;;;;1.29;93.73;99979.16;6284605;20;2848182;-58
2023/03/19 00:56:22;;;;;;;;;49.00;43.00;;;;;1.31;94.09;99965.00;6281291;20;2499312;-58
2023/03/19 00:58:51;;;;;;;;;56.50;46.00;;;;;1.31;94.05;99959.72;6284634;20;2860708;-58
2023/03/19 01:01:20;;;;;;;;;51.50;46.00;;;;;1.48;93.73;99948.81;6282892;20;2849280;-59
2023/03/19 01:03:48;;;;;;;;;63.00;48.50;;;;;1.49;93.49;99957.63;6282805;20;2491915;-58
2023/03/19 01:06:17;;;;;;;;;61.00;46.67;;;;;1.51;93.53;99951.41;6284240;20;3610862;-58
2023/03/19 01:08:46;;;;;;;;;62.00;47.50;;;;;1.62;93.38;99942.38;6283798;20;2872200;-57
2023/03/19 01:11:16;;;;;;;;;66.00;52.50;;;;;1.55;93.66;99931.03;6282130;20;2869040;-58
2023/03/19 01:13:45;;;;;;;;;62.50;50.00;;;;;1.47;94.14;99933.81;6282712;20;2870075;-58
2023/03/19 01:16:13;;;;;;;;;67.00;51.00;;;;;1.52;94.20;99925.78;6277227;20;2500303;-58
2023/03/19 01:18:42;;;;;;;;;65.00;53.50;;;;;1.59;94.54;99923.91;6281160;20;2855516;-58
2023/03/19 01:21:11;;;;;;;;;69.00;55.00;;;;;1.79;94.33;99934.94;6282173;20;2877382;-58
2023/03/19 01:23:40;;;;;;;;;64.50;53.50;;;;;2.06;92.69;99938.75;6282102;20;2849271;-56
2023/03/19 01:26:09;;;;;;;;;73.00;55.00;;;;;1.93;93.24;99938.16;6284290;20;2886688;-58
2023/03/19 01:28:37;;;;;;;;;69.50;55.00;;;;;1.89;93.94;99941.75;6307085;20;2500271;-58
2023/03/19 01:31:08;;;;;;;;;74.00;55.33;;;;;1.65;94.29;99931.72;6280683;20;3640927;-58
2023/03/19 01:33:38;;;;;;;;;60.67;45.00;;;;;1.64;94.31;99935.28;6313452;20;2884796;-57
2023/03/19 01:36:08;;;;;;;;;76.33;55.00;;;;;1.60;94.70;99938.88;6313463;20;2892092;-58
2023/03/19 01:38:38;;;;;;;;;73.33;56.33;;;;;1.85;94.05;99945.38;6311221;20;3647281;-58
2023/03/19 01:41:08;;;;;;;;;72.00;53.33;;;;;1.38;93.98;99941.97;6310363;20;2872185;-56
2023/03/19 01:43:36;;;;;;;;;63.00;47.00;;;;;1.00;94.22;99943.59;6310215;20;2487821;-57
2023/03/19 01:46:27;;;;;;;;;64.50;48.00;;;;;1.19;93.58;99948.53;6282832;20;2869015;-57
2023/03/19 01:49:00;;;;;;;;;62.00;48.00;;;;;0.87;92.79;99936.78;6279335;20;2487843;-59
2023/03/19 01:51:39;;;;;;;;;60.00;48.00;;;;;0.62;94.04;99936.31;6278149;20;2849191;-59
2023/03/19 01:54:16;;;;;;;;;52.00;43.50;;;;;0.64;94.54;99939.81;6277882;20;2498323;-60
2023/03/19 01:56:50;;;;;;;;;51.00;41.50;;;;;1.04;92.87;99939.09;6280319;20;2880475;-60
2023/03/19 01:59:28;;;;;;;;;62.50;46.50;;;;;0.50;93.49;99942.69;6281320;20;2875364;-61
2023/03/19 02:02:33;;;;;;;;;49.00;41.50;;;;;0.53;93.84;99945.28;6275498;20;2498263;-61
2023/03/19 02:05:24;;;;;;;;;63.00;48.00;;;;;0.63;94.30;99952.16;6280885;20;2861772;-59
2023/03/19 02:07:58;;;;;;;;;59.50;47.50;;;;;0.58;94.63;99938.16;6276094;20;2509065;-60
2023/03/19 02:10:29;;;;;;;;;61.50;47.00;;;;;0.82;93.84;99944.78;6279674;20;2859772;-57
2023/03/19 02:12:58;;;;;;;;;61.50;45.50;;;;;0.69;94.03;99943.25;6278701;20;2878531;-59
2023/03/19 02:15:26;;;;;;;;;60.50;51.00;;;;;0.74;93.69;99956.38;6278806;20;2500337;-59
2023/03/19 02:17:55;;;;;;;;;62.00;50.00;;;;;0.74;93.43;99961.66;6282327;20;2865356;-58
2023/03/19 02:21:16;;;;;;;;;64.00;47.00;;;;;0.60;93.47;99959.25;6279730;20;2876280;-58
2023/03/19 02:24:11;;;;;;;;;59.00;46.00;;;;;0.60;94.08;99964.53;6279141;20;2882664;-58
2023/03/19 02:26:42;;;;;;;;;47.50;42.50;;;;;0.66;94.36;99959.16;6310286;20;2862801;-58
2023/03/19 02:29:11;;;;;;;;;61.67;45.00;;;;;0.77;93.97;99961.63;6284154;20;3634666;-53
2023/03/19 02:31:39;;;;;;;;;57.00;45.50;;;;;0.64;94.54;99951.25;6272125;20;2499248;-58
2023/03/19 02:34:09;;;;;;;;;59.33;42.33;;;;;0.66;95.01;99953.88;6281111;20;3630466;-58
2023/03/19 02:36:53;;;;;;;;;60.00;51.00;;;;;0.41;95.23;99954.25;6308473;20;2493036;-56
2023/03/19 02:39:51;;;;;;;;;67.00;52.00;;;;;0.30;96.20;99944.78;6279902;20;2872191;-57
2023/03/19 02:42:22;;;;;;;;;66.50;52.00;;;;;0.34;96.63;99935.91;6281715;20;2863825;-59
2023/03/19 02:44:51;;;;;;;;;61.33;50.00;;;;;0.44;96.78;99942.78;6278195;20;3601302;-59
2023/03/19 02:47:19;;;;;;;;;62.00;51.00;;;;;0.46;96.43;99946.28;6279179;20;2499365;-58
2023/03/19 02:49:48;;;;;;;;;67.00;51.00;;;;;0.33;97.21;99947.38;6279881;20;2885776;-58
2023/03/19 02:52:17;;;;;;;;;58.00;47.00;;;;;0.46;97.22;99941.00;6281831;20;3577380;-58
2023/03/19 02:54:45;;;;;;;;;68.00;52.00;;;;;0.12;96.72;99936.22;6279540;20;2867983;-57
2023/03/19 02:57:14;;;;;;;;;78.50;60.50;;;;;0.46;97.03;99942.75;6281930;20;2875318;-57
2023/03/19 02:59:43;;;;;;;;;79.50;63.00;;;;;0.33;96.54;99942.09;6280273;20;2879460;-58
2023/03/19 03:02:14;;;;;;;;;101.33;90.33;;;;;0.30;96.55;99942.16;6275330;20;3656600;-56
2023/03/19 03:04:43;;;;;;;;;87.00;68.50;;;;;0.12;96.56;99930.97;6304888;20;2881553;-58
2023/03/19 03:07:12;;;;;;;;;95.33;75.00;;;;;-0.09;97.62;99941.84;6276705;20;3657594;-58
2023/03/19 03:09:42;;;;;;;;;106.00;94.33;;;;;-0.01;97.16;99946.09;6307542;20;3684740;-58
2023/03/19 03:12:12;;;;;;;;;100.67;83.33;;;;;0.21;97.58;99938.75;6275349;20;3662754;-58
2023/03/19 03:14:42;;;;;;;;;98.67;77.67;;;;;0.10;98.25;99939.78;6307195;20;3669023;-59
2023/03/19 03:17:12;;;;;;;;;96.67;71.67;;;;;0.11;97.86;99945.06;6309728;20;3672129;-60
2023/03/19 03:19:41;;;;;;;;;94.00;71.67;;;;;0.12;97.21;99941.50;6277335;20;3651260;-61
2023/03/19 03:22:11;;;;;;;;;94.00;74.33;;;;;0.00;96.98;99941.72;6306216;20;3652633;-59
2023/03/19 03:24:41;;;;;;;;;92.00;70.00;;;;;0.37;96.14;99946.41;6312152;20;2900314;-58
2023/03/19 03:27:10;;;;;;;;;80.50;60.00;;;;;-0.01;96.05;99946.09;6312462;20;2883691;-58
2023/03/19 03:29:40;;;;;;;;;66.50;48.50;;;;;0.01;96.43;99935.53;6280832;20;2879404;-58
2023/03/19 03:32:09;;;;;;;;;69.50;48.50;;;;;-0.10;96.29;99943.59;6280345;20;2881548;-57
2023/03/19 03:34:37;;;;;;;;;56.00;45.00;;;;;-0.22;96.79;99941.13;6279225;20;2867049;-58
2023/03/19 03:37:05;;;;;;;;;62.00;48.50;;;;;-0.09;96.68;99947.97;6277879;20;2498641;-58
2023/03/19 03:39:33;;;;;;;;;63.50;49.00;;;;;-0.13;96.58;99942.75;6280138;20;2864213;-55
2023/03/19 03:42:01;;;;;;;;;54.50;41.00;;;;;-0.27;97.51;99941.19;6275571;20;2500415;-57
2023/03/19 03:44:29;;;;;;;;;62.00;48.00;;;;;-0.28;97.96;99950.00;6275995;20;2500288;-59
2023/03/19 03:46:59;;;;;;;;;80.67;53.00;;;;;-0.09;98.03;99939.19;6280144;20;2890065;-59
2023/03/19 03:49:27;;;;;;;;;71.00;54.00;;;;;-0.19;98.46;99950.75;6309800;20;2886970;-57
2023/03/19 03:51:57;;;;;;;;;83.00;58.67;;;;;0.11;98.60;99937.16;6276955;20;3668493;-59
2023/03/19 03:54:26;;;;;;;;;74.00;55.50;;;;;-0.09;98.32;99936.56;6311386;20;2872261;-59
2023/03/19 03:56:54;;;;;;;;;67.00;53.00;;;;;-0.36;98.39;99938.69;6276453;20;2500311;-59
2023/03/19 03:59:24;;;;;;;;;74.67;58.00;;;;;-0.05;98.95;99938.28;6275836;20;2884675;-59
2023/03/19 04:01:53;;;;;;;;;75.50;55.50;;;;;-0.10;98.86;99942.75;6308885;20;2879460;-59
2023/03/19 04:04:22;;;;;;;;;80.33;59.33;;;;;0.07;98.62;99932.78;6279183;20;2894023;-59
2023/03/19 04:06:52;;;;;;;;;78.33;58.00;;;;;-0.07;98.49;99940.06;6311627;20;2896153;-58
2023/03/19 04:09:19;;;;;;;;;76.00;59.00;;;;;-0.35;98.75;99934.28;6305762;20;2500388;-59
2023/03/19 04:11:47;;;;;;;;;73.50;57.50;;;;;-0.48;99.72;99939.69;6274920;20;2500289;-59
2023/03/19 04:14:18;;;;;;;;;74.50;60.00;;;;;-0.11;99.92;99943.63;6275422;20;2500286;-59
2023/03/19 04:16:47;;;;;;;;;78.33;61.00;;;;;-0.36;99.48;99946.59;6280569;20;2888896;-59
2023/03/19 04:19:16;;;;;;;;;72.50;59.00;;;;;-0.38;99.52;99945.72;6314790;20;2881669;-58
2023/03/19 04:21:45;;;;;;;;;73.00;57.00;;;;;-0.49;99.78;99943.22;6284005;20;2500299;-59
2023/03/19 04:24:15;;;;;;;;;83.00;61.00;;;;;-0.53;100.00;99941.50;6284696;20;2894200;-60
2023/03/19 04:26:47;;;;;;;;;80.33;62.00;;;;;-0.58;100.00;99942.47;6314746;20;2891979;-59
2023/03/19 04:29:17;;;;;;;;;85.00;59.00;;;;;-0.78;98.97;99914.59;6313079;20;2910788;-59
2023/03/19 04:31:47;;;;;;;;;88.67;62.00;;;;;-0.61;99.50;99946.00;6314000;20;3665890;-58
2023/03/19 04:34:15;;;;;;;;;59.50;44.50;;;;;-0.78;99.70;99938.31;6312982;20;2496145;-60
2023/03/19 04:36:44;;;;;;;;;84.33;63.00;;;;;-0.65;99.18;99940.81;6280947;20;2889833;-60
2023/03/19 04:39:14;;;;;;;;;80.33;59.33;;;;;-0.63;99.60;99939.91;6316731;20;2893024;-61
2023/03/19 04:41:44;;;;;;;;;91.00;66.33;;;;;-0.33;99.35;99949.19;6312540;20;3666903;-60
2023/03/19 04:44:13;;;;;;;;;91.00;68.33;;;;;-0.30;98.69;99941.22;6316013;20;3659620;-60
2023/03/19 04:46:44;;;;;;;;;101.67;74.00;;;;;-0.38;98.98;99943.09;6313765;20;3673178;-61
2023/03/19 04:49:14;;;;;;;;;101.33;72.00;;;;;-0.30;98.79;99938.59;6316223;20;3678377;-61
2023/03/19 04:51:44;;;;;;;;;102.67;77.33;;;;;-0.24;98.03;99933.25;6278665;20;3686699;-61
2023/03/19 04:54:13;;;;;;;;;78.67;53.33;;;;;-0.41;98.12;99935.22;6283023;20;3627363;-61
2023/03/19 04:56:42;;;;;;;;;97.00;72.33;;;;;-0.40;98.55;99934.31;6279958;20;2899743;-61
2023/03/19 04:59:12;;;;;;;;;96.00;72.33;;;;;-0.51;98.48;99920.41;6313726;20;3649244;-61
2023/03/19 05:01:42;;;;;;;;;95.00;68.33;;;;;-0.43;98.37;99926.47;6313548;20;3657542;-60
2023/03/19 05:04:11;;;;;;;;;91.00;71.00;;;;;-0.41;98.04;99924.69;6312046;20;2898234;-60
2023/03/19 05:06:41;;;;;;;;;91.33;69.00;;;;;-0.58;98.43;99926.66;6315043;20;3644139;-61
2023/03/19 05:09:11;;;;;;;;;90.67;66.33;;;;;-0.13;98.89;99926.91;6312249;20;3652400;-61
2023/03/19 05:11:40;;;;;;;;;89.33;68.33;;;;;-0.31;98.60;99936.00;6313699;20;3651322;-60
2023/03/19 05:14:10;;;;;;;;;90.67;69.00;;;;;-0.10;98.68;99935.69;6314121;20;3643004;-61
2023/03/19 05:16:39;;;;;;;;;91.00;67.00;;;;;0.19;98.06;99940.53;6313011;20;2890986;-60
2023/03/19 05:19:09;;;;;;;;;87.67;64.67;;;;;0.26;97.74;99933.38;6314311;20;3660681;-61
2023/03/19 05:21:39;;;;;;;;;83.67;63.67;;;;;0.70;96.88;99945.00;6309751;20;2889852;-61
2023/03/19 05:24:09;;;;;;;;;82.67;64.00;;;;;0.76;95.60;99944.88;6311795;20;2867476;-61
2023/03/19 05:26:38;;;;;;;;;84.33;62.67;;;;;0.63;96.48;99941.59;6311445;20;3657563;-60
2023/03/19 05:29:09;;;;;;;;;79.67;60.00;;;;;0.82;96.27;99943.91;6310525;20;2891005;-61
2023/03/19 05:31:39;;;;;;;;;78.33;61.33;;;;;0.93;95.34;99941.94;6313421;20;2887855;-61
2023/03/19 05:34:09;;;;;;;;;81.67;59.67;;;;;1.11;95.31;99951.31;6311726;20;2888898;-61
2023/03/19 05:36:39;;;;;;;;;84.33;62.33;;;;;1.19;95.06;99954.69;6311707;20;3647198;-61
2023/03/19 05:39:07;;;;;;;;;72.00;57.50;;;;;1.29;94.83;99953.59;6311118;20;2500373;-60
2023/03/19 05:41:36;;;;;;;;;82.33;61.67;;;;;1.50;93.70;99952.31;6281376;20;3628460;-61
2023/03/19 05:44:06;;;;;;;;;84.00;62.33;;;;;1.58;93.69;99957.44;6311929;20;3640979;-61
2023/03/19 05:46:35;;;;;;;;;75.33;58.00;;;;;1.85;93.08;99955.97;6312440;20;2880497;-61
2023/03/19 05:49:05;;;;;;;;;78.00;58.00;;;;;1.72;92.60;99954.50;6315597;20;2887734;-61
2023/03/19 05:51:35;;;;;;;;;79.00;60.00;;;;;2.02;92.13;99967.97;6310653;20;3645033;-60
2023/03/19 05:54:05;;;;;;;;;75.33;59.33;;;;;1.98;92.17;99968.03;6314909;20;3633647;-61
2023/03/19 05:56:35;;;;;;;;;73.00;57.00;;;;;2.54;89.90;99980.03;6313354;20;2887743;-61
2023/03/19 05:59:05;;;;;;;;;76.67;58.33;;;;;2.65;88.59;99975.31;6283195;20;3638780;-61
2023/03/19 06:01:35;;;;;;;;;78.00;58.67;;;;;4.05;84.55;99977.66;6311075;20;3637838;-61
2023/03/19 06:04:05;;;;;;;;;76.33;58.00;;;;;4.80;79.55;99985.06;6311983;20;3642972;-61
2023/03/19 06:06:35;;;;;;;;;80.33;61.67;;;;;5.23;77.59;99986.25;6314716;20;3628786;-59
2023/03/19 06:09:04;;;;;;;;;76.00;59.67;;;;;6.99;69.38;99994.66;6311103;20;3626292;-60
2023/03/19 06:11:34;;;;;;;;;70.00;53.67;;;;;8.28;63.68;99991.59;6311620;20;3625362;-61
2023/03/19 06:14:04;;;;;;;;;65.33;50.00;;;;;7.69;63.21;99996.09;6312929;20;2867968;-61
2023/03/19 06:16:34;;;;;;;;;66.67;51.00;;;;;9.71;58.48;100001.41;6313928;20;3626286;-61
2023/03/19 06:19:03;;;;;;;;;83.67;63.33;;;;;10.09;55.61;100006.56;6312914;20;3658552;-61
2023/03/19 06:21:33;;;;;;;;;87.67;73.33;;;;;11.07;51.68;100011.78;6278549;20;3660685;-61
2023/03/19 06:24:03;;;;;;;;;92.00;81.67;;;;;11.19;51.21;100016.44;6277506;20;3654415;-61
2023/03/19 06:26:33;;;;;;;;;71.67;54.00;;;;;12.39;49.08;100019.03;6280769;20;3646117;-62
2023/03/19 06:29:03;;;;;;;;;67.00;50.33;;;;;12.47;46.90;100014.00;6313331;20;3637828;-62
2023/03/19 06:31:32;;;;;;;;;49.50;42.50;;;;;11.42;47.24;100011.50;6303537;20;2841226;-62
2023/03/19 06:34:01;;;;;;;;;56.00;45.00;;;;;13.54;45.13;100022.25;6280808;20;2862847;-62
2023/03/19 06:36:30;;;;;;;;;61.67;49.67;;;;;11.48;46.88;100032.66;6280383;20;3623220;-59
2023/03/19 06:38:59;;;;;;;;;55.00;46.50;;;;;13.52;43.73;100043.06;6311237;20;2847366;-60
2023/03/19 06:41:29;;;;;;;;;58.67;47.33;;;;;15.10;39.67;100040.78;6272178;20;2857722;-59
2023/03/19 06:43:59;;;;;;;;;56.33;42.33;;;;;14.03;39.92;100048.50;6311507;20;2878534;-59
2023/03/19 06:46:27;;;;;;;;;52.00;42.00;;;;;14.48;41.20;100048.91;6311182;20;2860731;-59
2023/03/19 06:48:57;;;;;;;;;53.00;43.50;;;;;14.22;42.85;100043.56;6277592;20;2858729;-60
2023/03/19 06:51:28;;;;;;;;;54.50;43.00;;;;;13.78;42.08;100033.19;6277712;20;2854447;-61
2023/03/19 06:53:57;;;;;;;;;47.00;38.00;;;;;13.72;42.05;100042.56;6275537;20;2854573;-59
2023/03/19 06:56:26;;;;;;;;;50.00;43.00;;;;;15.00;39.91;100039.72;6280067;20;2573287;-59
2023/03/19 06:58:55;;;;;;;;;42.33;36.67;;;;;15.38;39.03;100044.13;6278059;20;2866979;-59
2023/03/19 07:01:24;;;;;;;;;53.00;42.33;;;;;15.13;40.25;100043.25;6309376;20;3596096;-59
2023/03/19 07:03:53;;;;;;;;;52.00;42.50;;;;;15.34;40.00;100032.66;6276017;20;2854450;-58
2023/03/19 07:06:23;;;;;;;;;48.00;40.00;;;;;15.48;39.58;100045.16;6280907;20;3608646;-59
2023/03/19 07:08:52;;;;;;;;;51.00;42.00;;;;;16.81;37.62;100047.34;6309976;20;2867119;-59
2023/03/19 07:11:21;;;;;;;;;46.67;37.67;;;;;17.17;35.99;100044.41;6312606;20;3600356;-60
2023/03/19 07:13:50;;;;;;;;;51.00;41.67;;;;;16.12;37.50;100049.28;6279607;20;2852410;-59
2023/03/19 07:16:19;;;;;;;;;66.00;52.00;;;;;17.88;34.64;100050.22;6312789;20;3613926;-59
2023/03/19 07:18:49;;;;;;;;;51.67;39.67;;;;;17.70;33.88;100045.31;6279097;20;3614849;-60
2023/03/19 07:21:18;;;;;;;;;45.33;35.67;;;;;17.12;35.82;100039.38;6312557;20;2854513;-59
2023/03/19 07:23:49;;;;;;;;;40.67;34.33;;;;;14.37;40.52;100046.13;6313592;20;3595160;-59
2023/03/19 07:26:18;;;;;;;;;37.67;34.00;;;;;9.72;52.98;100039.84;6280032;20;3595054;-59
2023/03/19 07:28:47;;;;;;;;;36.67;33.00;;;;;10.40;52.68;100029.03;6279661;20;2859767;-59
2023/03/19 07:31:16;;;;;;;;;30.00;29.33;;;;;9.83;54.70;100026.72;6309848;20;3587777;-59
2023/03/19 07:33:46;;;;;;;;;40.33;36.33;;;;;9.04;57.74;100029.00;6275230;20;2857694;-59
2023/03/19 07:36:15;;;;;;;;;37.33;34.67;;;;;9.08;57.02;100025.22;6314642;20;3593982;-59
2023/03/19 07:38:44;;;;;;;;;37.00;34.67;;;;;8.18;59.08;100025.91;6280171;20;2851894;-60
2023/03/19 07:41:13;;;;;;;;;54.00;43.00;;;;;9.06;57.08;100017.28;6312426;20;3605536;-59
2023/03/19 07:43:42;;;;;;;;;34.33;29.67;;;;;10.18;54.42;100021.28;6278851;20;3602394;-59
2023/03/19 07:46:11;;;;;;;;;30.00;25.00;;;;;9.08;55.52;100006.47;6309250;20;2851434;-59
2023/03/19 07:48:40;;;;;;;;;35.33;34.00;;;;;9.40;56.30;100011.06;6280144;20;3582680;-58
2023/03/19 07:51:09;;;;;;;;;32.50;32.50;;;;;9.30;54.65;100007.13;6307841;20;2862752;-60
2023/03/19 07:53:37;;;;;;;;;34.67;31.00;;;;;9.99;53.21;100011.53;6287618;20;3596075;-58
2023/03/19 07:56:07;;;;;;;;;36.67;32.00;;;;;9.56;54.71;100007.59;6284101;20;3610663;-60
2023/03/19 07:58:36;;;;;;;;;40.25;29.25;;;;;10.23;52.39;99997.75;6319820;20;3642088;-58
2023/03/19 08:01:06;;;;;;;;;37.67;30.33;;;;;9.55;55.67;99998.66;6317571;20;3624203;-60
2023/03/19 08:03:34;;;;;;;;;36.00;32.67;;;;;10.28;52.55;99996.56;6287941;20;3607656;-59
2023/03/19 08:06:04;;;;;;;;;31.67;30.67;;;;;10.19;52.82;99997.06;6287385;20;3599302;-59
2023/03/19 08:08:33;;;;;;;;;32.33;25.67;;;;;10.45;53.24;100003.69;6320570;20;3600351;-59
2023/03/19 08:11:03;;;;;;;;;30.00;24.00;;;;;10.52;51.26;99998.81;6281928;20;2858720;-59
2023/03/19 08:13:33;;;;;;;;;34.33;27.33;;;;;10.95;50.52;100007.09;6285613;20;2857737;-59
2023/03/19 08:16:02;;;;;;;;;30.33;25.67;;;;;11.68;49.50;100009.94;6319366;20;3594065;-60
2023/03/19 08:18:31;;;;;;;;;26.00;21.00;;;;;11.61;47.41;100001.38;6285839;20;2841975;-60
2023/03/19 08:21:00;;;;;;;;;29.00;24.00;;;;;11.35;46.52;100004.78;6283780;20;2850276;-59
2023/03/19 08:23:29;;;;;;;;;14.33;14.00;;;;;10.92;46.23;100001.91;6284559;20;3523290;-59
2023/03/19 08:25:57;;;;;;;;;22.00;22.00;;;;;11.33;47.82;99994.13;6285872;20;2835701;-60
2023/03/19 08:28:26;;;;;;;;;25.50;23.50;;;;;11.49;48.23;99996.75;6286451;20;2830624;-59
2023/03/19 08:30:55;;;;;;;;;21.00;21.00;;;;;11.67;46.41;100004.66;6284688;20;2837943;-60
2023/03/19 08:33:24;;;;;;;;;22.50;20.50;;;;;11.19;45.67;99999.47;6283485;20;2825711;-59
2023/03/19 08:36:02;;;;;;;;;29.67;26.00;;;;;11.88;46.94;100002.50;6285607;20;2854583;-59
2023/03/19 08:38:31;;;;;;;;;28.67;23.00;;;;;12.14;47.28;100003.56;6316510;20;3571143;-59
2023/03/19 08:41:01;;;;;;;;;24.67;22.33;;;;;12.00;46.21;99993.66;6318471;20;3589836;-60
2023/03/19 08:43:33;;;;;;;;;28.67;26.67;;;;;12.10;46.08;100002.88;6282503;20;3608637;-58
2023/03/19 08:46:02;;;;;;;;;26.00;23.00;;;;;12.54;45.03;100007.28;6320688;20;2714937;-60
2023/03/19 08:48:31;;;;;;;;;28.33;22.00;;;;;12.43;44.39;100007.97;6286097;20;3594044;-60
2023/03/19 08:51:02;;;;;;;;;28.00;27.67;;;;;12.30;42.10;100002.50;6284435;20;3585658;-60
2023/03/19 08:53:31;;;;;;;;;19.00;18.00;;;;;12.30;41.69;99993.56;6285287;20;2837547;-60
2023/03/19 08:56:05;;;;;;;;;22.00;19.50;;;;;12.51;42.52;99997.56;6283422;20;2842007;-60
2023/03/19 08:58:34;;;;;;;;;13.67;13.67;;;;;12.20;42.09;99997.81;6283825;20;3529484;-59
2023/03/19 09:01:10;;;;;;;;;68.67;53.67;;;;;12.16;43.03;99998.94;6314243;20;3639922;-60
2023/03/19 09:03:42;;;;;;;;;19.00;16.67;;;;;12.45;41.28;100011.44;6282920;20;3555449;-60
2023/03/19 09:06:13;;;;;;;;;24.50;23.50;;;;;12.26;42.84;100009.03;6284644;20;2839945;-60
2023/03/19 09:08:42;;;;;;;;;17.00;12.50;;;;;11.89;42.46;100004.22;6286262;20;2805658;-60
2023/03/19 09:11:13;;;;;;;;;50.00;42.33;;;;;12.45;42.89;100016.81;6284144;20;2861831;-60
2023/03/19 09:13:42;;;;;;;;;49.33;42.00;;;;;12.62;42.29;100009.47;6316635;20;3605498;-60
2023/03/19 09:16:10;;;;;;;;;18.67;13.33;;;;;12.58;41.54;100003.41;6286818;20;3557661;-60
2023/03/19 09:18:39;;;;;;;;;17.00;17.00;;;;;12.74;42.01;100009.56;6315747;20;3554389;-59
2023/03/19 09:21:07;;;;;;;;;26.50;24.00;;;;;12.43;42.80;100005.28;6317699;20;3534723;-59
2023/03/19 09:23:39;;;;;;;;;26.88;23.13;;;;;12.20;42.72;100003.19;6337210;20;3591937;-60
2023/03/19 09:26:07;;;;;;;;;26.00;24.00;;;;;12.63;43.25;100000.41;6283538;20;2850284;-60
2023/03/19 09:28:37;;;;;;;;;23.67;23.67;;;;;12.64;43.85;100000.34;6282521;20;2860794;-60
2023/03/19 09:31:10;;;;;;;;;24.00;19.50;;;;;12.83;42.49;99989.22;6313268;20;2845562;-59
2023/03/19 09:33:39;;;;;;;;;24.50;21.00;;;;;12.91;43.04;99986.88;6284082;20;2845070;-60
2023/03/19 09:36:08;;;;;;;;;25.00;25.00;;;;;12.94;43.39;99994.75;6284718;20;3587751;-59
2023/03/19 09:38:38;;;;;;;;;24.50;22.00;;;;;12.84;43.24;99990.94;6314430;20;2837777;-59
2023/03/19 09:41:27;;;;;;;;;34.00;29.67;;;;;13.07;43.47;99983.16;6288588;20;3604437;-59
2023/03/19 09:44:19;;;;;;;;;24.00;22.00;;;;;13.21;43.22;99979.50;6287541;20;3581504;-59
2023/03/19 09:47:20;;;;;;;;;13.67;13.67;;;;;13.33;42.55;99967.94;6279990;20;3531963;-59
2023/03/19 09:49:50;;;;;;;;;26.00;21.50;;;;;13.63;43.58;99967.63;6279152;20;2835686;-59
2023/03/19 09:52:44;;;;;;;;;18.00;18.00;;;;;13.12;41.41;99956.75;6281700;20;2831581;-59
2023/03/19 09:55:27;;;;;;;;;19.00;18.00;;;;;12.86;41.13;99970.13;6278599;20;2492016;-59
2023/03/19 09:57:57;;;;;;;;;21.50;18.00;;;;;13.48;41.00;99966.00;6281809;20;2827377;-59
2023/03/19 10:00:37;;;;;;;;;17.50;14.00;;;;;13.70;41.17;99976.19;6284294;20;2809741;-60
2023/03/19 10:03:29;;;;;;;;;19.00;16.50;;;;;13.04;40.31;99969.88;6280884;20;2832584;-59
2023/03/19 10:06:32;;;;;;;;;22.00;22.00;;;;;13.77;41.11;99962.16;6281363;20;2846108;-59
2023/03/19 10:09:56;;;;;;;;;21.50;21.50;;;;;13.68;40.28;99962.78;6280236;20;2496133;-59
2023/03/19 10:13:20;;;;;;;;;19.00;17.00;;;;;14.25;40.87;99954.22;6278503;20;3560794;-59
2023/03/19 10:15:52;;;;;;;;;20.50;18.50;;;;;13.72;40.25;99958.91;6278353;20;2835859;-59
2023/03/19 10:18:34;;;;;;;;;18.00;18.00;;;;;14.05;39.14;99962.88;6284257;20;2829574;-59
2023/03/19 10:21:12;;;;;;;;;22.50;20.00;;;;;14.22;39.98;99957.13;6279490;20;2835730;-60
2023/03/19 10:24:11;;;;;;;;;19.00;18.50;;;;;14.15;39.06;99950.44;6278966;20;2840926;-60
2023/03/19 10:26:39;;;;;;;;;7.50;7.00;;;;;14.36;37.96;99939.06;6282410;20;2737749;-58
2023/03/19 10:29:17;;;;;;;;;18.00;15.00;;;;;13.97;38.75;99940.97;6283436;20;2485700;-59
2023/03/19 10:32:19;;;;;;;;;11.00;11.00;;;;;14.15;38.58;99938.78;6277428;20;2792033;-60
2023/03/19 10:34:54;;;;;;;;;16.00;16.00;;;;;14.49;37.68;99939.88;6309166;20;2698207;-60
2023/03/19 10:37:27;;;;;;;;;17.00;14.67;;;;;14.67;37.90;99935.84;6314893;20;3546128;-59
2023/03/19 10:39:59;;;;;;;;;14.67;14.67;;;;;14.72;37.07;99938.22;6279587;20;3540862;-60
2023/03/19 10:43:21;;;;;;;;;11.33;11.00;;;;;14.60;37.10;99934.56;6315165;20;3513902;-60
2023/03/19 10:45:49;;;;;;;;;28.50;24.00;;;;;15.34;36.06;99939.81;6308747;20;2473192;-59
2023/03/19 10:48:19;;;;;;;;;15.00;13.00;;;;;14.83;35.84;99935.56;6285805;20;2808609;-59
2023/03/19 10:51:03;;;;;;;;;18.00;14.00;;;;;14.85;36.52;99927.31;6282375;20;2812775;-60
2023/03/19 10:53:40;;;;;;;;;15.33;12.00;;;;;14.85;36.63;99928.22;6277847;20;3522165;-60
2023/03/19 10:56:29;;;;;;;;;14.50;13.50;;;;;14.89;36.15;99918.00;6306954;20;2788821;-59
2023/03/19 10:59:06;;;;;;;;;16.33;15.00;;;;;14.97;36.71;99921.00;6274696;20;3548206;-60
2023/03/19 11:01:39;;;;;;;;;16.00;16.00;;;;;14.90;35.98;99917.91;6273542;20;2831571;-61
2023/03/19 11:04:19;;;;;;;;;16.33;16.33;;;;;15.29;36.04;99914.94;6278193;20;3554412;-62
2023/03/19 11:07:02;;;;;;;;;15.00;13.00;;;;;14.87;36.17;99910.00;6283117;20;2793402;-60
2023/03/19 11:09:33;;;;;;;;;12.00;12.00;;;;;14.97;36.86;99909.31;6284567;20;2789865;-61
2023/03/19 11:12:25;;;;;;;;;10.67;9.33;;;;;15.07;35.30;99899.53;6279729;20;2776343;-61
2023/03/19 11:14:56;;;;;;;;;10.00;9.50;;;;;15.18;35.73;99888.72;6318575;20;2770100;-61
2023/03/19 11:17:48;;;;;;;;;15.00;13.67;;;;;15.53;35.74;99894.09;6277953;20;3535779;-61
2023/03/19 11:20:31;;;;;;;;;12.33;11.00;;;;;15.36;35.84;99883.75;6282244;20;2788852;-61
2023/03/19 11:23:10;;;;;;;;;16.00;16.00;;;;;15.77;35.72;99882.31;6310541;20;2811772;-61
2023/03/19 11:25:58;;;;;;;;;15.67;12.67;;;;;15.82;34.51;99863.88;6278681;20;3529540;-61